sensor_id;sensor_type;location;lat;lon;timestamp;P1;durP1;ratioP1;P2;durP2;ratioP2
78131;SDS011;67381;47.672;9.380;2023-11-18T00:00:56;6.53;;;4.10;;
78131;SDS011;67381;47.672;9.380;2023-11-18T00:03:23;7.93;;;4.38;;
78131;SDS011;67381;47.672;9.380;2023-11-18T00:05:51;8.68;;;4.47;;
78131;SDS011;67381;47.672;9.380;2023-11-18T00:08:18;8.15;;;4.03;;
78131;SDS011;67381;47.672;9.380;2023-11-18T00:10:45;8.10;;;4.13;;
78131;SDS011;67381;47.672;9.380;2023-11-18T00:13:12;7.68;;;4.78;;
78131;SDS011;67381;47.672;9.380;2023-11-18T00:15:40;6.78;;;4.32;;
78131;SDS011;67381;47.672;9.380;2023-11-18T00:18:07;7.90;;;4.35;;
78131;SDS011;67381;47.672;9.380;2023-11-18T00:20:34;7.45;;;3.95;;
78131;SDS011;67381;47.672;9.380;2023-11-18T00:23:02;7.90;;;3.45;;
78131;SDS011;67381;47.672;9.380;2023-11-18T00:25:31;7.60;;;4.22;;
78131;SDS011;67381;47.672;9.380;2023-11-18T00:28:00;6.63;;;3.83;;
78131;SDS011;67381;47.672;9.380;2023-11-18T00:30:28;6.97;;;3.50;;
78131;SDS011;67381;47.672;9.380;2023-11-18T00:32:55;7.15;;;3.95;;
78131;SDS011;67381;47.672;9.380;2023-11-18T00:35:22;6.80;;;3.78;;
78131;SDS011;67381;47.672;9.380;2023-11-18T00:37:49;6.95;;;3.45;;
78131;SDS011;67381;47.672;9.380;2023-11-18T00:40:17;6.18;;;3.63;;
78131;SDS011;67381;47.672;9.380;2023-11-18T00:42:45;5.22;;;3.63;;
78131;SDS011;67381;47.672;9.380;2023-11-18T00:45:12;6.80;;;3.88;;
78131;SDS011;67381;47.672;9.380;2023-11-18T00:47:39;7.50;;;3.13;;
78131;SDS011;67381;47.672;9.380;2023-11-18T00:50:08;5.65;;;3.78;;
78131;SDS011;67381;47.672;9.380;2023-11-18T00:52:35;8.23;;;3.72;;
78131;SDS011;67381;47.672;9.380;2023-11-18T00:55:05;7.07;;;4.40;;
78131;SDS011;67381;47.672;9.380;2023-11-18T00:57:33;6.70;;;4.40;;
78131;SDS011;67381;47.672;9.380;2023-11-18T01:00:00;7.32;;;4.30;;
78131;SDS011;67381;47.672;9.380;2023-11-18T01:02:27;7.10;;;4.00;;
78131;SDS011;67381;47.672;9.380;2023-11-18T01:04:54;8.30;;;5.28;;
78131;SDS011;67381;47.672;9.380;2023-11-18T01:07:22;9.27;;;5.47;;
78131;SDS011;67381;47.672;9.380;2023-11-18T01:09:49;7.95;;;5.00;;
78131;SDS011;67381;47.672;9.380;2023-11-18T01:12:16;8.70;;;4.53;;
78131;SDS011;67381;47.672;9.380;2023-11-18T01:14:44;10.40;;;5.53;;
78131;SDS011;67381;47.672;9.380;2023-11-18T01:17:11;10.18;;;6.18;;
78131;SDS011;67381;47.672;9.380;2023-11-18T01:19:38;9.43;;;5.57;;
78131;SDS011;67381;47.672;9.380;2023-11-18T01:22:05;8.13;;;4.90;;
78131;SDS011;67381;47.672;9.380;2023-11-18T01:24:32;9.50;;;4.82;;
78131;SDS011;67381;47.672;9.380;2023-11-18T01:27:00;6.97;;;4.78;;
78131;SDS011;67381;47.672;9.380;2023-11-18T01:29:27;7.18;;;4.35;;
78131;SDS011;67381;47.672;9.380;2023-11-18T01:31:57;8.98;;;4.85;;
78131;SDS011;67381;47.672;9.380;2023-11-18T01:34:25;7.38;;;4.78;;
78131;SDS011;67381;47.672;9.380;2023-11-18T01:36:52;7.70;;;4.53;;
78131;SDS011;67381;47.672;9.380;2023-11-18T01:39:19;7.60;;;5.15;;
78131;SDS011;67381;47.672;9.380;2023-11-18T01:41:47;9.35;;;5.50;;
78131;SDS011;67381;47.672;9.380;2023-11-18T01:44:15;9.43;;;5.30;;
78131;SDS011;67381;47.672;9.380;2023-11-18T01:46:44;9.23;;;5.15;;
78131;SDS011;67381;47.672;9.380;2023-11-18T01:49:12;18.48;;;11.75;;
78131;SDS011;67381;47.672;9.380;2023-11-18T01:51:42;15.27;;;9.65;;
78131;SDS011;67381;47.672;9.380;2023-11-18T01:54:10;9.77;;;6.50;;
78131;SDS011;67381;47.672;9.380;2023-11-18T01:56:43;6.65;;;4.10;;
78131;SDS011;67381;47.672;9.380;2023-11-18T01:59:10;7.78;;;5.03;;
78131;SDS011;67381;47.672;9.380;2023-11-18T02:01:49;8.57;;;5.13;;
78131;SDS011;67381;47.672;9.380;2023-11-18T02:04:16;7.45;;;4.18;;
78131;SDS011;67381;47.672;9.380;2023-11-18T02:06:47;6.88;;;4.00;;
78131;SDS011;67381;47.672;9.380;2023-11-18T02:09:15;7.63;;;4.22;;
78131;SDS011;67381;47.672;9.380;2023-11-18T02:11:57;6.82;;;4.03;;
78131;SDS011;67381;47.672;9.380;2023-11-18T02:14:26;5.28;;;3.53;;
78131;SDS011;67381;47.672;9.380;2023-11-18T02:16:55;5.82;;;3.30;;
78131;SDS011;67381;47.672;9.380;2023-11-18T02:19:24;7.28;;;4.18;;
78131;SDS011;67381;47.672;9.380;2023-11-18T02:21:54;6.93;;;4.25;;
78131;SDS011;67381;47.672;9.380;2023-11-18T02:24:30;14.10;;;5.13;;
78131;SDS011;67381;47.672;9.380;2023-11-18T02:27:00;8.70;;;5.05;;
78131;SDS011;67381;47.672;9.380;2023-11-18T02:29:28;7.07;;;4.40;;
78131;SDS011;67381;47.672;9.380;2023-11-18T02:32:01;9.55;;;4.38;;
78131;SDS011;67381;47.672;9.380;2023-11-18T02:34:30;9.52;;;4.55;;
78131;SDS011;67381;47.672;9.380;2023-11-18T02:36:58;9.35;;;4.75;;
78131;SDS011;67381;47.672;9.380;2023-11-18T02:39:32;7.55;;;4.68;;
78131;SDS011;67381;47.672;9.380;2023-11-18T02:42:02;9.55;;;5.32;;
78131;SDS011;67381;47.672;9.380;2023-11-18T02:44:31;9.63;;;5.45;;
78131;SDS011;67381;47.672;9.380;2023-11-18T02:46:59;11.20;;;6.63;;
78131;SDS011;67381;47.672;9.380;2023-11-18T02:49:27;7.60;;;3.92;;
78131;SDS011;67381;47.672;9.380;2023-11-18T02:51:56;8.85;;;4.25;;
78131;SDS011;67381;47.672;9.380;2023-11-18T02:54:23;6.90;;;3.88;;
78131;SDS011;67381;47.672;9.380;2023-11-18T02:56:50;7.45;;;4.30;;
78131;SDS011;67381;47.672;9.380;2023-11-18T02:59:18;6.85;;;4.28;;
78131;SDS011;67381;47.672;9.380;2023-11-18T03:01:45;8.77;;;4.53;;
78131;SDS011;67381;47.672;9.380;2023-11-18T03:04:12;8.10;;;4.55;;
78131;SDS011;67381;47.672;9.380;2023-11-18T03:06:40;9.70;;;4.15;;
78131;SDS011;67381;47.672;9.380;2023-11-18T03:09:08;8.55;;;4.50;;
78131;SDS011;67381;47.672;9.380;2023-11-18T03:11:37;7.53;;;4.65;;
78131;SDS011;67381;47.672;9.380;2023-11-18T03:14:04;7.50;;;4.40;;
78131;SDS011;67381;47.672;9.380;2023-11-18T03:16:31;7.97;;;4.47;;
78131;SDS011;67381;47.672;9.380;2023-11-18T03:18:58;6.47;;;3.85;;
78131;SDS011;67381;47.672;9.380;2023-11-18T03:21:26;6.57;;;4.10;;
78131;SDS011;67381;47.672;9.380;2023-11-18T03:23:53;9.13;;;4.18;;
78131;SDS011;67381;47.672;9.380;2023-11-18T03:26:20;7.95;;;3.97;;
78131;SDS011;67381;47.672;9.380;2023-11-18T03:28:48;6.18;;;3.80;;
78131;SDS011;67381;47.672;9.380;2023-11-18T03:31:14;8.15;;;4.88;;
78131;SDS011;67381;47.672;9.380;2023-11-18T03:33:42;8.73;;;5.32;;
78131;SDS011;67381;47.672;9.380;2023-11-18T03:36:10;7.85;;;4.50;;
78131;SDS011;67381;47.672;9.380;2023-11-18T03:38:38;8.07;;;4.57;;
78131;SDS011;67381;47.672;9.380;2023-11-18T03:41:05;12.45;;;4.82;;
78131;SDS011;67381;47.672;9.380;2023-11-18T03:43:35;6.10;;;3.33;;
78131;SDS011;67381;47.672;9.380;2023-11-18T03:46:04;6.75;;;3.83;;
78131;SDS011;67381;47.672;9.380;2023-11-18T03:48:31;5.88;;;3.78;;
78131;SDS011;67381;47.672;9.380;2023-11-18T03:50:58;6.35;;;3.50;;
78131;SDS011;67381;47.672;9.380;2023-11-18T03:53:26;8.18;;;3.75;;
78131;SDS011;67381;47.672;9.380;2023-11-18T03:55:53;7.70;;;3.92;;
78131;SDS011;67381;47.672;9.380;2023-11-18T03:58:20;6.82;;;3.58;;
78131;SDS011;67381;47.672;9.380;2023-11-18T04:00:47;7.38;;;4.05;;
78131;SDS011;67381;47.672;9.380;2023-11-18T04:03:14;7.75;;;4.60;;
78131;SDS011;67381;47.672;9.380;2023-11-18T04:05:42;7.88;;;4.45;;
78131;SDS011;67381;47.672;9.380;2023-11-18T04:08:09;8.38;;;4.72;;
78131;SDS011;67381;47.672;9.380;2023-11-18T04:10:36;8.10;;;4.10;;
78131;SDS011;67381;47.672;9.380;2023-11-18T04:13:03;10.27;;;5.47;;
78131;SDS011;67381;47.672;9.380;2023-11-18T04:15:31;8.68;;;5.10;;
78131;SDS011;67381;47.672;9.380;2023-11-18T04:17:58;8.45;;;5.13;;
78131;SDS011;67381;47.672;9.380;2023-11-18T04:20:25;8.48;;;4.80;;
78131;SDS011;67381;47.672;9.380;2023-11-18T04:22:52;8.68;;;4.65;;
78131;SDS011;67381;47.672;9.380;2023-11-18T04:25:19;7.63;;;4.82;;
78131;SDS011;67381;47.672;9.380;2023-11-18T04:27:46;7.13;;;4.18;;
78131;SDS011;67381;47.672;9.380;2023-11-18T04:30:14;6.78;;;3.97;;
78131;SDS011;67381;47.672;9.380;2023-11-18T04:32:41;6.07;;;3.50;;
78131;SDS011;67381;47.672;9.380;2023-11-18T04:35:09;5.80;;;3.83;;
78131;SDS011;67381;47.672;9.380;2023-11-18T04:37:37;6.80;;;3.95;;
78131;SDS011;67381;47.672;9.380;2023-11-18T04:40:05;7.40;;;4.35;;
78131;SDS011;67381;47.672;9.380;2023-11-18T04:42:33;7.97;;;3.75;;
78131;SDS011;67381;47.672;9.380;2023-11-18T04:45:00;6.75;;;4.68;;
78131;SDS011;67381;47.672;9.380;2023-11-18T04:47:27;8.25;;;4.45;;
78131;SDS011;67381;47.672;9.380;2023-11-18T04:49:54;9.63;;;5.68;;
78131;SDS011;67381;47.672;9.380;2023-11-18T04:52:21;8.40;;;5.03;;
78131;SDS011;67381;47.672;9.380;2023-11-18T04:54:48;10.27;;;5.43;;
78131;SDS011;67381;47.672;9.380;2023-11-18T04:57:15;9.70;;;5.43;;
78131;SDS011;67381;47.672;9.380;2023-11-18T04:59:42;10.32;;;5.50;;
78131;SDS011;67381;47.672;9.380;2023-11-18T05:02:09;23.70;;;7.75;;
78131;SDS011;67381;47.672;9.380;2023-11-18T05:04:37;12.68;;;7.38;;
78131;SDS011;67381;47.672;9.380;2023-11-18T05:07:04;11.70;;;7.53;;
78131;SDS011;67381;47.672;9.380;2023-11-18T05:09:31;14.25;;;6.80;;
78131;SDS011;67381;47.672;9.380;2023-11-18T05:11:58;11.25;;;5.78;;
78131;SDS011;67381;47.672;9.380;2023-11-18T05:14:25;12.32;;;6.50;;
78131;SDS011;67381;47.672;9.380;2023-11-18T05:16:53;11.45;;;6.22;;
78131;SDS011;67381;47.672;9.380;2023-11-18T05:19:20;10.57;;;6.15;;
78131;SDS011;67381;47.672;9.380;2023-11-18T05:21:47;12.40;;;6.18;;
78131;SDS011;67381;47.672;9.380;2023-11-18T05:24:18;9.20;;;5.45;;
78131;SDS011;67381;47.672;9.380;2023-11-18T05:26:45;8.95;;;5.25;;
78131;SDS011;67381;47.672;9.380;2023-11-18T05:29:12;8.73;;;5.10;;
78131;SDS011;67381;47.672;9.380;2023-11-18T05:31:43;10.77;;;5.07;;
78131;SDS011;67381;47.672;9.380;2023-11-18T05:34:10;9.57;;;4.78;;
78131;SDS011;67381;47.672;9.380;2023-11-18T05:36:38;12.75;;;5.40;;
78131;SDS011;67381;47.672;9.380;2023-11-18T05:39:07;8.07;;;4.75;;
78131;SDS011;67381;47.672;9.380;2023-11-18T05:41:36;8.45;;;4.72;;
78131;SDS011;67381;47.672;9.380;2023-11-18T05:44:06;9.68;;;4.97;;
78131;SDS011;67381;47.672;9.380;2023-11-18T05:46:35;8.82;;;5.07;;
78131;SDS011;67381;47.672;9.380;2023-11-18T05:49:03;7.85;;;4.57;;
78131;SDS011;67381;47.672;9.380;2023-11-18T05:51:34;8.10;;;4.38;;
78131;SDS011;67381;47.672;9.380;2023-11-18T05:54:01;6.93;;;4.80;;
78131;SDS011;67381;47.672;9.380;2023-11-18T05:56:29;9.65;;;5.63;;
78131;SDS011;67381;47.672;9.380;2023-11-18T05:58:56;11.13;;;6.60;;
78131;SDS011;67381;47.672;9.380;2023-11-18T06:01:23;12.75;;;7.07;;
78131;SDS011;67381;47.672;9.380;2023-11-18T06:03:50;11.82;;;6.57;;
78131;SDS011;67381;47.672;9.380;2023-11-18T06:06:17;11.20;;;6.22;;
78131;SDS011;67381;47.672;9.380;2023-11-18T06:08:45;10.85;;;5.90;;
78131;SDS011;67381;47.672;9.380;2023-11-18T06:11:14;8.57;;;5.18;;
78131;SDS011;67381;47.672;9.380;2023-11-18T06:13:43;9.38;;;5.10;;
78131;SDS011;67381;47.672;9.380;2023-11-18T06:18:44;9.85;;;5.72;;
78131;SDS011;67381;47.672;9.380;2023-11-18T06:21:11;9.00;;;5.45;;
78131;SDS011;67381;47.672;9.380;2023-11-18T06:23:39;8.50;;;4.80;;
78131;SDS011;67381;47.672;9.380;2023-11-18T06:26:06;11.18;;;5.93;;
78131;SDS011;67381;47.672;9.380;2023-11-18T06:28:33;10.93;;;6.05;;
78131;SDS011;67381;47.672;9.380;2023-11-18T06:31:01;12.50;;;6.35;;
78131;SDS011;67381;47.672;9.380;2023-11-18T06:33:28;9.35;;;5.35;;
78131;SDS011;67381;47.672;9.380;2023-11-18T06:35:55;8.65;;;5.53;;
78131;SDS011;67381;47.672;9.380;2023-11-18T06:38:23;7.38;;;4.68;;
78131;SDS011;67381;47.672;9.380;2023-11-18T06:40:51;9.23;;;4.93;;
78131;SDS011;67381;47.672;9.380;2023-11-18T06:43:19;8.45;;;4.93;;
78131;SDS011;67381;47.672;9.380;2023-11-18T06:45:47;9.98;;;5.55;;
78131;SDS011;67381;47.672;9.380;2023-11-18T06:48:15;9.77;;;5.78;;
78131;SDS011;67381;47.672;9.380;2023-11-18T06:50:46;9.32;;;6.07;;
78131;SDS011;67381;47.672;9.380;2023-11-18T06:53:14;10.00;;;5.90;;
78131;SDS011;67381;47.672;9.380;2023-11-18T06:55:42;10.32;;;5.95;;
78131;SDS011;67381;47.672;9.380;2023-11-18T06:58:09;8.57;;;5.50;;
78131;SDS011;67381;47.672;9.380;2023-11-18T07:00:36;8.52;;;5.35;;
78131;SDS011;67381;47.672;9.380;2023-11-18T07:03:03;8.85;;;5.53;;
78131;SDS011;67381;47.672;9.380;2023-11-18T07:05:32;7.63;;;4.78;;
78131;SDS011;67381;47.672;9.380;2023-11-18T07:07:59;9.63;;;5.55;;
78131;SDS011;67381;47.672;9.380;2023-11-18T07:10:26;11.93;;;6.30;;
78131;SDS011;67381;47.672;9.380;2023-11-18T07:12:54;11.88;;;6.82;;
78131;SDS011;67381;47.672;9.380;2023-11-18T07:15:21;12.93;;;7.15;;
78131;SDS011;67381;47.672;9.380;2023-11-18T07:17:48;12.25;;;7.85;;
78131;SDS011;67381;47.672;9.380;2023-11-18T07:20:16;13.93;;;8.43;;
78131;SDS011;67381;47.672;9.380;2023-11-18T07:22:43;14.13;;;7.72;;
78131;SDS011;67381;47.672;9.380;2023-11-18T07:25:10;14.15;;;8.13;;
78131;SDS011;67381;47.672;9.380;2023-11-18T07:27:38;13.82;;;7.75;;
78131;SDS011;67381;47.672;9.380;2023-11-18T07:30:05;14.80;;;7.72;;
78131;SDS011;67381;47.672;9.380;2023-11-18T07:32:33;15.45;;;7.50;;
78131;SDS011;67381;47.672;9.380;2023-11-18T07:35:00;15.07;;;7.88;;
78131;SDS011;67381;47.672;9.380;2023-11-18T07:37:28;10.55;;;6.88;;
78131;SDS011;67381;47.672;9.380;2023-11-18T07:39:59;13.13;;;7.93;;
78131;SDS011;67381;47.672;9.380;2023-11-18T07:42:27;14.30;;;8.70;;
78131;SDS011;67381;47.672;9.380;2023-11-18T07:44:54;15.80;;;9.23;;
78131;SDS011;67381;47.672;9.380;2023-11-18T07:47:21;14.77;;;7.35;;
78131;SDS011;67381;47.672;9.380;2023-11-18T07:49:48;14.55;;;7.18;;
78131;SDS011;67381;47.672;9.380;2023-11-18T07:52:15;14.82;;;7.65;;
78131;SDS011;67381;47.672;9.380;2023-11-18T07:54:43;12.82;;;6.95;;
78131;SDS011;67381;47.672;9.380;2023-11-18T07:57:10;13.65;;;7.43;;
78131;SDS011;67381;47.672;9.380;2023-11-18T07:59:38;13.80;;;8.13;;
78131;SDS011;67381;47.672;9.380;2023-11-18T08:02:05;13.68;;;8.00;;
78131;SDS011;67381;47.672;9.380;2023-11-18T08:04:36;14.63;;;7.95;;
78131;SDS011;67381;47.672;9.380;2023-11-18T08:07:03;13.98;;;8.23;;
78131;SDS011;67381;47.672;9.380;2023-11-18T08:09:32;16.80;;;8.50;;
78131;SDS011;67381;47.672;9.380;2023-11-18T08:11:59;15.75;;;8.73;;
78131;SDS011;67381;47.672;9.380;2023-11-18T08:14:26;12.73;;;8.15;;
78131;SDS011;67381;47.672;9.380;2023-11-18T08:16:53;14.10;;;8.43;;
78131;SDS011;67381;47.672;9.380;2023-11-18T08:19:22;13.05;;;7.85;;
78131;SDS011;67381;47.672;9.380;2023-11-18T08:21:50;14.52;;;7.43;;
78131;SDS011;67381;47.672;9.380;2023-11-18T08:24:17;12.85;;;7.93;;
78131;SDS011;67381;47.672;9.380;2023-11-18T08:26:45;13.90;;;7.70;;
78131;SDS011;67381;47.672;9.380;2023-11-18T08:29:12;12.50;;;7.50;;
78131;SDS011;67381;47.672;9.380;2023-11-18T08:31:39;12.95;;;7.55;;
78131;SDS011;67381;47.672;9.380;2023-11-18T08:34:06;12.30;;;6.82;;
78131;SDS011;67381;47.672;9.380;2023-11-18T08:36:33;12.80;;;7.75;;
78131;SDS011;67381;47.672;9.380;2023-11-18T08:39:01;11.70;;;7.57;;
78131;SDS011;67381;47.672;9.380;2023-11-18T08:41:28;11.45;;;6.70;;
78131;SDS011;67381;47.672;9.380;2023-11-18T08:43:55;10.35;;;6.88;;
78131;SDS011;67381;47.672;9.380;2023-11-18T08:46:24;13.57;;;7.15;;
78131;SDS011;67381;47.672;9.380;2023-11-18T08:48:52;11.00;;;6.97;;
78131;SDS011;67381;47.672;9.380;2023-11-18T08:51:21;11.38;;;6.85;;
78131;SDS011;67381;47.672;9.380;2023-11-18T08:53:48;13.85;;;6.97;;
78131;SDS011;67381;47.672;9.380;2023-11-18T08:56:17;10.50;;;6.40;;
78131;SDS011;67381;47.672;9.380;2023-11-18T08:58:46;12.65;;;6.70;;
78131;SDS011;67381;47.672;9.380;2023-11-18T09:01:16;11.15;;;6.78;;
78131;SDS011;67381;47.672;9.380;2023-11-18T09:03:43;10.55;;;6.18;;
78131;SDS011;67381;47.672;9.380;2023-11-18T09:06:15;9.90;;;5.63;;
78131;SDS011;67381;47.672;9.380;2023-11-18T09:08:45;12.23;;;6.25;;
78131;SDS011;67381;47.672;9.380;2023-11-18T09:11:13;10.02;;;6.10;;
78131;SDS011;67381;47.672;9.380;2023-11-18T09:13:44;9.95;;;6.28;;
78131;SDS011;67381;47.672;9.380;2023-11-18T09:16:14;10.50;;;6.38;;
78131;SDS011;67381;47.672;9.380;2023-11-18T09:18:42;12.15;;;6.10;;
78131;SDS011;67381;47.672;9.380;2023-11-18T09:21:12;15.05;;;6.10;;
78131;SDS011;67381;47.672;9.380;2023-11-18T09:23:42;11.52;;;6.18;;
78131;SDS011;67381;47.672;9.380;2023-11-18T09:26:09;9.95;;;5.78;;
78131;SDS011;67381;47.672;9.380;2023-11-18T09:28:37;9.90;;;5.20;;
78131;SDS011;67381;47.672;9.380;2023-11-18T09:31:04;10.02;;;5.63;;
78131;SDS011;67381;47.672;9.380;2023-11-18T09:33:33;10.90;;;5.22;;
78131;SDS011;67381;47.672;9.380;2023-11-18T09:36:00;10.18;;;6.00;;
78131;SDS011;67381;47.672;9.380;2023-11-18T09:38:31;7.80;;;5.20;;
78131;SDS011;67381;47.672;9.380;2023-11-18T09:40:59;8.18;;;5.00;;
78131;SDS011;67381;47.672;9.380;2023-11-18T09:43:30;9.77;;;5.97;;
78131;SDS011;67381;47.672;9.380;2023-11-18T09:46:06;8.77;;;5.43;;
78131;SDS011;67381;47.672;9.380;2023-11-18T09:51:08;8.50;;;5.45;;
78131;SDS011;67381;47.672;9.380;2023-11-18T09:53:37;9.40;;;5.65;;
78131;SDS011;67381;47.672;9.380;2023-11-18T09:56:07;9.30;;;6.00;;
78131;SDS011;67381;47.672;9.380;2023-11-18T09:58:37;8.95;;;5.28;;
78131;SDS011;67381;47.672;9.380;2023-11-18T10:01:08;7.50;;;4.88;;
78131;SDS011;67381;47.672;9.380;2023-11-18T10:03:41;10.95;;;6.10;;
78131;SDS011;67381;47.672;9.380;2023-11-18T10:06:10;9.55;;;5.18;;
78131;SDS011;67381;47.672;9.380;2023-11-18T10:08:38;8.02;;;4.97;;
78131;SDS011;67381;47.672;9.380;2023-11-18T10:11:05;11.63;;;5.05;;
78131;SDS011;67381;47.672;9.380;2023-11-18T10:13:36;7.82;;;4.82;;
78131;SDS011;67381;47.672;9.380;2023-11-18T10:16:09;5.65;;;3.92;;
78131;SDS011;67381;47.672;9.380;2023-11-18T10:18:38;6.65;;;4.03;;
78131;SDS011;67381;47.672;9.380;2023-11-18T10:21:05;6.65;;;4.25;;
78131;SDS011;67381;47.672;9.380;2023-11-18T10:23:34;6.38;;;3.95;;
78131;SDS011;67381;47.672;9.380;2023-11-18T10:26:04;6.70;;;4.25;;
78131;SDS011;67381;47.672;9.380;2023-11-18T10:28:32;7.57;;;4.10;;
78131;SDS011;67381;47.672;9.380;2023-11-18T10:31:00;8.15;;;3.97;;
78131;SDS011;67381;47.672;9.380;2023-11-18T10:33:36;6.18;;;4.43;;
78131;SDS011;67381;47.672;9.380;2023-11-18T10:36:04;6.78;;;3.60;;
78131;SDS011;67381;47.672;9.380;2023-11-18T10:38:32;6.07;;;3.80;;
78131;SDS011;67381;47.672;9.380;2023-11-18T10:41:03;6.10;;;3.80;;
78131;SDS011;67381;47.672;9.380;2023-11-18T10:43:32;6.85;;;4.32;;
78131;SDS011;67381;47.672;9.380;2023-11-18T10:46:06;6.57;;;4.25;;
78131;SDS011;67381;47.672;9.380;2023-11-18T10:48:40;6.57;;;3.80;;
78131;SDS011;67381;47.672;9.380;2023-11-18T10:51:09;6.50;;;3.95;;
78131;SDS011;67381;47.672;9.380;2023-11-18T10:53:36;4.70;;;3.30;;
78131;SDS011;67381;47.672;9.380;2023-11-18T10:56:04;6.53;;;3.40;;
78131;SDS011;67381;47.672;9.380;2023-11-18T10:58:35;7.38;;;4.20;;
78131;SDS011;67381;47.672;9.380;2023-11-18T11:01:03;6.20;;;3.42;;
78131;SDS011;67381;47.672;9.380;2023-11-18T11:03:32;5.50;;;3.20;;
78131;SDS011;67381;47.672;9.380;2023-11-18T11:06:15;5.28;;;3.38;;
78131;SDS011;67381;47.672;9.380;2023-11-18T11:08:44;5.10;;;3.30;;
78131;SDS011;67381;47.672;9.380;2023-11-18T11:11:11;4.85;;;3.00;;
78131;SDS011;67381;47.672;9.380;2023-11-18T11:13:44;4.00;;;2.53;;
78131;SDS011;67381;47.672;9.380;2023-11-18T11:18:42;5.95;;;3.00;;
78131;SDS011;67381;47.672;9.380;2023-11-18T11:21:13;5.40;;;3.05;;
78131;SDS011;67381;47.672;9.380;2023-11-18T11:26:23;4.93;;;2.45;;
78131;SDS011;67381;47.672;9.380;2023-11-18T11:28:58;4.53;;;2.50;;
78131;SDS011;67381;47.672;9.380;2023-11-18T11:33:57;6.30;;;3.00;;
78131;SDS011;67381;47.672;9.380;2023-11-18T11:36:29;6.15;;;3.60;;
78131;SDS011;67381;47.672;9.380;2023-11-18T11:38:58;6.47;;;3.45;;
78131;SDS011;67381;47.672;9.380;2023-11-18T11:41:26;6.90;;;3.28;;
78131;SDS011;67381;47.672;9.380;2023-11-18T11:43:54;3.88;;;2.50;;
78131;SDS011;67381;47.672;9.380;2023-11-18T11:46:22;5.72;;;2.50;;
78131;SDS011;67381;47.672;9.380;2023-11-18T11:48:53;5.45;;;2.28;;
78131;SDS011;67381;47.672;9.380;2023-11-18T11:56:37;4.45;;;2.50;;
78131;SDS011;67381;47.672;9.380;2023-11-18T11:59:04;3.85;;;2.33;;
78131;SDS011;67381;47.672;9.380;2023-11-18T12:01:37;5.10;;;3.13;;
78131;SDS011;67381;47.672;9.380;2023-11-18T12:04:05;5.13;;;3.10;;
78131;SDS011;67381;47.672;9.380;2023-11-18T12:06:41;6.57;;;3.30;;
78131;SDS011;67381;47.672;9.380;2023-11-18T12:09:09;5.10;;;2.70;;
78131;SDS011;67381;47.672;9.380;2023-11-18T12:11:36;4.75;;;2.95;;
78131;SDS011;67381;47.672;9.380;2023-11-18T12:14:08;4.28;;;2.72;;
78131;SDS011;67381;47.672;9.380;2023-11-18T12:19:31;4.15;;;2.30;;
78131;SDS011;67381;47.672;9.380;2023-11-18T12:21:59;7.57;;;2.67;;
78131;SDS011;67381;47.672;9.380;2023-11-18T12:24:27;4.13;;;2.28;;
78131;SDS011;67381;47.672;9.380;2023-11-18T12:26:56;4.15;;;2.47;;
78131;SDS011;67381;47.672;9.380;2023-11-18T12:29:32;5.10;;;2.45;;
78131;SDS011;67381;47.672;9.380;2023-11-18T12:32:01;4.07;;;2.53;;
78131;SDS011;67381;47.672;9.380;2023-11-18T12:37:27;5.93;;;2.42;;
78131;SDS011;67381;47.672;9.380;2023-11-18T12:47:52;5.38;;;2.22;;
78131;SDS011;67381;47.672;9.380;2023-11-18T12:50:21;3.97;;;2.00;;
78131;SDS011;67381;47.672;9.380;2023-11-18T12:52:55;3.40;;;1.80;;
78131;SDS011;67381;47.672;9.380;2023-11-18T12:55:22;3.13;;;1.80;;
78131;SDS011;67381;47.672;9.380;2023-11-18T12:57:50;4.05;;;2.10;;
78131;SDS011;67381;47.672;9.380;2023-11-18T13:00:20;4.60;;;2.13;;
78131;SDS011;67381;47.672;9.380;2023-11-18T13:02:54;3.80;;;1.55;;
78131;SDS011;67381;47.672;9.380;2023-11-18T13:05:21;3.33;;;1.80;;
78131;SDS011;67381;47.672;9.380;2023-11-18T13:07:48;3.40;;;1.90;;
78131;SDS011;67381;47.672;9.380;2023-11-18T13:10:16;4.10;;;1.98;;
78131;SDS011;67381;47.672;9.380;2023-11-18T13:12:43;5.50;;;1.50;;
78131;SDS011;67381;47.672;9.380;2023-11-18T13:15:12;4.18;;;1.70;;
78131;SDS011;67381;47.672;9.380;2023-11-18T13:17:39;4.82;;;1.50;;
78131;SDS011;67381;47.672;9.380;2023-11-18T13:20:11;5.30;;;1.98;;
78131;SDS011;67381;47.672;9.380;2023-11-18T13:22:41;5.45;;;2.00;;
78131;SDS011;67381;47.672;9.380;2023-11-18T13:25:11;3.50;;;1.73;;
78131;SDS011;67381;47.672;9.380;2023-11-18T13:27:41;4.60;;;2.20;;
78131;SDS011;67381;47.672;9.380;2023-11-18T13:30:08;4.50;;;2.10;;
78131;SDS011;67381;47.672;9.380;2023-11-18T13:32:40;4.65;;;2.08;;
78131;SDS011;67381;47.672;9.380;2023-11-18T13:35:08;3.85;;;2.42;;
78131;SDS011;67381;47.672;9.380;2023-11-18T13:37:35;4.43;;;2.22;;
78131;SDS011;67381;47.672;9.380;2023-11-18T13:40:02;5.35;;;2.42;;
78131;SDS011;67381;47.672;9.380;2023-11-18T13:42:32;6.05;;;2.58;;
78131;SDS011;67381;47.672;9.380;2023-11-18T13:45:08;4.70;;;2.30;;
78131;SDS011;67381;47.672;9.380;2023-11-18T13:47:38;4.03;;;2.53;;
78131;SDS011;67381;47.672;9.380;2023-11-18T13:50:11;4.22;;;2.10;;
78131;SDS011;67381;47.672;9.380;2023-11-18T13:52:40;4.07;;;2.00;;
78131;SDS011;67381;47.672;9.380;2023-11-18T13:55:07;3.42;;;1.98;;
78131;SDS011;67381;47.672;9.380;2023-11-18T13:57:35;3.45;;;1.60;;
78131;SDS011;67381;47.672;9.380;2023-11-18T14:00:03;4.28;;;1.90;;
78131;SDS011;67381;47.672;9.380;2023-11-18T14:02:33;6.53;;;2.70;;
78131;SDS011;67381;47.672;9.380;2023-11-18T14:05:02;4.47;;;2.28;;
78131;SDS011;67381;47.672;9.380;2023-11-18T14:07:37;5.00;;;2.20;;
78131;SDS011;67381;47.672;9.380;2023-11-18T14:10:05;7.75;;;3.13;;
78131;SDS011;67381;47.672;9.380;2023-11-18T14:12:35;5.10;;;2.75;;
78131;SDS011;67381;47.672;9.380;2023-11-18T14:15:02;5.03;;;2.50;;
78131;SDS011;67381;47.672;9.380;2023-11-18T14:17:31;5.05;;;2.60;;
78131;SDS011;67381;47.672;9.380;2023-11-18T14:19:58;6.22;;;1.90;;
78131;SDS011;67381;47.672;9.380;2023-11-18T14:22:26;2.90;;;1.55;;
78131;SDS011;67381;47.672;9.380;2023-11-18T14:24:53;3.20;;;1.80;;
78131;SDS011;67381;47.672;9.380;2023-11-18T14:27:20;3.42;;;2.00;;
78131;SDS011;67381;47.672;9.380;2023-11-18T14:29:53;3.90;;;1.88;;
78131;SDS011;67381;47.672;9.380;2023-11-18T14:32:20;4.05;;;1.70;;
78131;SDS011;67381;47.672;9.380;2023-11-18T14:34:47;5.10;;;1.83;;
78131;SDS011;67381;47.672;9.380;2023-11-18T14:37:15;4.30;;;2.20;;
78131;SDS011;67381;47.672;9.380;2023-11-18T14:39:44;4.05;;;1.65;;
78131;SDS011;67381;47.672;9.380;2023-11-18T14:42:12;5.97;;;2.20;;
78131;SDS011;67381;47.672;9.380;2023-11-18T14:44:39;4.38;;;2.30;;
78131;SDS011;67381;47.672;9.380;2023-11-18T14:47:06;5.80;;;2.13;;
78131;SDS011;67381;47.672;9.380;2023-11-18T14:49:34;5.43;;;2.40;;
78131;SDS011;67381;47.672;9.380;2023-11-18T14:52:01;5.57;;;2.95;;
78131;SDS011;67381;47.672;9.380;2023-11-18T14:54:28;6.38;;;2.45;;
78131;SDS011;67381;47.672;9.380;2023-11-18T14:56:57;6.13;;;2.90;;
78131;SDS011;67381;47.672;9.380;2023-11-18T14:59:24;6.78;;;2.63;;
78131;SDS011;67381;47.672;9.380;2023-11-18T15:01:51;8.25;;;3.72;;
78131;SDS011;67381;47.672;9.380;2023-11-18T15:04:23;8.50;;;3.90;;
78131;SDS011;67381;47.672;9.380;2023-11-18T15:06:53;5.22;;;2.85;;
78131;SDS011;67381;47.672;9.380;2023-11-18T15:09:22;6.43;;;2.75;;
78131;SDS011;67381;47.672;9.380;2023-11-18T15:11:51;6.57;;;2.78;;
78131;SDS011;67381;47.672;9.380;2023-11-18T15:14:20;6.47;;;2.53;;
78131;SDS011;67381;47.672;9.380;2023-11-18T15:16:47;5.80;;;2.67;;
78131;SDS011;67381;47.672;9.380;2023-11-18T15:19:14;5.00;;;2.03;;
78131;SDS011;67381;47.672;9.380;2023-11-18T15:21:42;5.43;;;2.08;;
78131;SDS011;67381;47.672;9.380;2023-11-18T15:24:09;6.05;;;2.83;;